sensor_id;sensor_type;location;lat;lon;timestamp;P1;durP1;ratioP1;P2;durP2;ratioP2
68074;SDS011;54864;52.002;5.468;2022-07-09T00:00:44;8.65;;;4.40;;
68074;SDS011;54864;52.002;5.468;2022-07-09T00:01:45;8.57;;;3.90;;
68074;SDS011;54864;52.002;5.468;2022-07-09T00:02:46;6.53;;;4.33;;
68074;SDS011;54864;52.002;5.468;2022-07-09T00:03:47;7.80;;;3.85;;
68074;SDS011;54864;52.002;5.468;2022-07-09T00:04:49;6.90;;;4.15;;
68074;SDS011;54864;52.002;5.468;2022-07-09T00:05:50;9.50;;;3.93;;
68074;SDS011;54864;52.002;5.468;2022-07-09T00:06:51;5.97;;;3.58;;
68074;SDS011;54864;52.002;5.468;2022-07-09T00:07:52;6.32;;;3.72;;
68074;SDS011;54864;52.002;5.468;2022-07-09T00:08:54;8.18;;;3.70;;
68074;SDS011;54864;52.002;5.468;2022-07-09T00:09:54;9.52;;;3.72;;
68074;SDS011;54864;52.002;5.468;2022-07-09T00:10:58;6.00;;;3.75;;
68074;SDS011;54864;52.002;5.468;2022-07-09T00:11:58;7.00;;;4.00;;
68074;SDS011;54864;52.002;5.468;2022-07-09T00:13:00;8.02;;;3.70;;
68074;SDS011;54864;52.002;5.468;2022-07-09T00:14:00;9.60;;;4.45;;
68074;SDS011;54864;52.002;5.468;2022-07-09T00:15:02;5.75;;;3.60;;
68074;SDS011;54864;52.002;5.468;2022-07-09T00:16:04;6.93;;;3.65;;
68074;SDS011;54864;52.002;5.468;2022-07-09T00:17:06;8.68;;;3.92;;
68074;SDS011;54864;52.002;5.468;2022-07-09T00:18:06;7.10;;;3.90;;
68074;SDS011;54864;52.002;5.468;2022-07-09T00:19:08;7.38;;;4.15;;
68074;SDS011;54864;52.002;5.468;2022-07-09T00:20:09;6.10;;;3.75;;
68074;SDS011;54864;52.002;5.468;2022-07-09T00:21:12;6.63;;;4.00;;
68074;SDS011;54864;52.002;5.468;2022-07-09T00:22:12;8.50;;;3.80;;
68074;SDS011;54864;52.002;5.468;2022-07-09T00:23:14;5.68;;;3.80;;
68074;SDS011;54864;52.002;5.468;2022-07-09T00:24:14;6.20;;;4.03;;
68074;SDS011;54864;52.002;5.468;2022-07-09T00:25:16;6.72;;;3.80;;
68074;SDS011;54864;52.002;5.468;2022-07-09T00:26:18;6.03;;;3.80;;
68074;SDS011;54864;52.002;5.468;2022-07-09T00:27:20;5.93;;;3.63;;
68074;SDS011;54864;52.002;5.468;2022-07-09T00:28:20;5.18;;;3.85;;
68074;SDS011;54864;52.002;5.468;2022-07-09T00:29:22;4.82;;;3.58;;
68074;SDS011;54864;52.002;5.468;2022-07-09T00:30:23;7.53;;;3.88;;
68074;SDS011;54864;52.002;5.468;2022-07-09T00:31:25;5.97;;;3.85;;
68074;SDS011;54864;52.002;5.468;2022-07-09T00:32:25;7.03;;;3.80;;
68074;SDS011;54864;52.002;5.468;2022-07-09T00:33:27;5.35;;;3.38;;
68074;SDS011;54864;52.002;5.468;2022-07-09T00:34:27;4.47;;;3.87;;
68074;SDS011;54864;52.002;5.468;2022-07-09T00:35:29;6.40;;;4.00;;
68074;SDS011;54864;52.002;5.468;2022-07-09T00:36:30;6.57;;;3.65;;
68074;SDS011;54864;52.002;5.468;2022-07-09T00:37:32;6.20;;;3.63;;
68074;SDS011;54864;52.002;5.468;2022-07-09T00:38:32;6.87;;;4.03;;
68074;SDS011;54864;52.002;5.468;2022-07-09T00:39:34;5.45;;;3.55;;
68074;SDS011;54864;52.002;5.468;2022-07-09T00:40:35;5.87;;;4.20;;
68074;SDS011;54864;52.002;5.468;2022-07-09T00:41:38;9.10;;;4.03;;
68074;SDS011;54864;52.002;5.468;2022-07-09T00:42:38;7.55;;;3.90;;
68074;SDS011;54864;52.002;5.468;2022-07-09T00:43:45;6.55;;;3.47;;
68074;SDS011;54864;52.002;5.468;2022-07-09T00:44:47;5.50;;;3.42;;
68074;SDS011;54864;52.002;5.468;2022-07-09T00:45:49;6.78;;;3.75;;
68074;SDS011;54864;52.002;5.468;2022-07-09T00:46:50;6.30;;;3.95;;
68074;SDS011;54864;52.002;5.468;2022-07-09T00:47:51;4.07;;;3.50;;
68074;SDS011;54864;52.002;5.468;2022-07-09T00:48:52;7.00;;;3.57;;
68074;SDS011;54864;52.002;5.468;2022-07-09T00:49:53;7.68;;;3.90;;
68074;SDS011;54864;52.002;5.468;2022-07-09T00:50:55;6.57;;;3.80;;
68074;SDS011;54864;52.002;5.468;2022-07-09T00:51:56;9.73;;;4.05;;
68074;SDS011;54864;52.002;5.468;2022-07-09T00:52:58;6.10;;;4.30;;
68074;SDS011;54864;52.002;5.468;2022-07-09T00:53:59;7.40;;;4.20;;
68074;SDS011;54864;52.002;5.468;2022-07-09T00:55:01;6.20;;;4.32;;
68074;SDS011;54864;52.002;5.468;2022-07-09T00:56:04;7.00;;;3.97;;
68074;SDS011;54864;52.002;5.468;2022-07-09T00:57:07;10.73;;;4.60;;
68074;SDS011;54864;52.002;5.468;2022-07-09T00:58:10;9.18;;;4.40;;
68074;SDS011;54864;52.002;5.468;2022-07-09T00:59:11;8.95;;;4.60;;
68074;SDS011;54864;52.002;5.468;2022-07-09T01:00:13;6.65;;;4.30;;
68074;SDS011;54864;52.002;5.468;2022-07-09T01:01:14;8.15;;;4.10;;
68074;SDS011;54864;52.002;5.468;2022-07-09T01:02:16;8.50;;;4.30;;
68074;SDS011;54864;52.002;5.468;2022-07-09T01:03:18;6.03;;;3.70;;
68074;SDS011;54864;52.002;5.468;2022-07-09T01:04:20;6.72;;;4.07;;
68074;SDS011;54864;52.002;5.468;2022-07-09T01:05:21;5.35;;;3.95;;
68074;SDS011;54864;52.002;5.468;2022-07-09T01:06:22;8.18;;;3.92;;
68074;SDS011;54864;52.002;5.468;2022-07-09T01:07:23;6.78;;;4.07;;
68074;SDS011;54864;52.002;5.468;2022-07-09T01:08:25;4.65;;;4.10;;
68074;SDS011;54864;52.002;5.468;2022-07-09T01:09:26;8.18;;;4.07;;
68074;SDS011;54864;52.002;5.468;2022-07-09T01:10:29;6.95;;;4.40;;
68074;SDS011;54864;52.002;5.468;2022-07-09T01:11:30;8.70;;;4.50;;
68074;SDS011;54864;52.002;5.468;2022-07-09T01:12:33;6.82;;;4.07;;
68074;SDS011;54864;52.002;5.468;2022-07-09T01:13:33;7.18;;;4.57;;
68074;SDS011;54864;52.002;5.468;2022-07-09T01:14:35;6.35;;;3.90;;
68074;SDS011;54864;52.002;5.468;2022-07-09T01:15:36;6.38;;;4.30;;
68074;SDS011;54864;52.002;5.468;2022-07-09T01:16:38;6.72;;;4.32;;
68074;SDS011;54864;52.002;5.468;2022-07-09T01:17:39;6.30;;;3.90;;
68074;SDS011;54864;52.002;5.468;2022-07-09T01:18:42;7.47;;;4.05;;
68074;SDS011;54864;52.002;5.468;2022-07-09T01:19:44;6.35;;;4.03;;
68074;SDS011;54864;52.002;5.468;2022-07-09T01:20:47;4.95;;;3.97;;
68074;SDS011;54864;52.002;5.468;2022-07-09T01:21:48;7.22;;;3.90;;
68074;SDS011;54864;52.002;5.468;2022-07-09T01:22:49;5.60;;;4.00;;
68074;SDS011;54864;52.002;5.468;2022-07-09T01:23:50;8.82;;;3.95;;
68074;SDS011;54864;52.002;5.468;2022-07-09T01:24:52;7.75;;;4.32;;
68074;SDS011;54864;52.002;5.468;2022-07-09T01:25:55;6.80;;;3.80;;
68074;SDS011;54864;52.002;5.468;2022-07-09T01:26:58;8.27;;;3.90;;
68074;SDS011;54864;52.002;5.468;2022-07-09T01:27:59;6.65;;;4.07;;
68074;SDS011;54864;52.002;5.468;2022-07-09T01:29:01;10.30;;;4.25;;
68074;SDS011;54864;52.002;5.468;2022-07-09T01:30:02;5.60;;;3.80;;
68074;SDS011;54864;52.002;5.468;2022-07-09T01:31:05;7.00;;;4.20;;
68074;SDS011;54864;52.002;5.468;2022-07-09T01:32:06;7.38;;;3.97;;
68074;SDS011;54864;52.002;5.468;2022-07-09T01:33:08;4.85;;;3.67;;
68074;SDS011;54864;52.002;5.468;2022-07-09T01:34:09;7.53;;;3.93;;
68074;SDS011;54864;52.002;5.468;2022-07-09T01:35:10;5.55;;;3.80;;
68074;SDS011;54864;52.002;5.468;2022-07-09T01:36:12;6.03;;;4.13;;
68074;SDS011;54864;52.002;5.468;2022-07-09T01:37:14;8.00;;;4.03;;
68074;SDS011;54864;52.002;5.468;2022-07-09T01:38:15;8.52;;;4.28;;
68074;SDS011;54864;52.002;5.468;2022-07-09T01:39:17;4.85;;;3.78;;
68074;SDS011;54864;52.002;5.468;2022-07-09T01:40:18;6.20;;;3.60;;
68074;SDS011;54864;52.002;5.468;2022-07-09T01:41:19;5.82;;;3.80;;
68074;SDS011;54864;52.002;5.468;2022-07-09T01:42:20;8.23;;;3.93;;
68074;SDS011;54864;52.002;5.468;2022-07-09T01:43:22;7.93;;;4.00;;
68074;SDS011;54864;52.002;5.468;2022-07-09T01:44:22;7.65;;;4.38;;
68074;SDS011;54864;52.002;5.468;2022-07-09T01:45:24;6.22;;;3.60;;
68074;SDS011;54864;52.002;5.468;2022-07-09T01:46:25;5.18;;;3.53;;
68074;SDS011;54864;52.002;5.468;2022-07-09T01:47:26;8.27;;;3.90;;
68074;SDS011;54864;52.002;5.468;2022-07-09T01:48:27;6.07;;;3.80;;
68074;SDS011;54864;52.002;5.468;2022-07-09T01:49:30;6.95;;;3.95;;
68074;SDS011;54864;52.002;5.468;2022-07-09T01:50:30;7.47;;;4.23;;
68074;SDS011;54864;52.002;5.468;2022-07-09T01:51:34;5.55;;;3.95;;
68074;SDS011;54864;52.002;5.468;2022-07-09T01:52:36;5.78;;;3.92;;
68074;SDS011;54864;52.002;5.468;2022-07-09T01:53:41;6.35;;;3.90;;
68074;SDS011;54864;52.002;5.468;2022-07-09T01:54:41;9.90;;;4.55;;
68074;SDS011;54864;52.002;5.468;2022-07-09T01:55:43;8.60;;;3.97;;
68074;SDS011;54864;52.002;5.468;2022-07-09T01:56:43;7.40;;;4.10;;
68074;SDS011;54864;52.002;5.468;2022-07-09T01:57:45;8.25;;;4.00;;
68074;SDS011;54864;52.002;5.468;2022-07-09T01:58:46;5.87;;;3.87;;
68074;SDS011;54864;52.002;5.468;2022-07-09T01:59:47;8.63;;;4.18;;
68074;SDS011;54864;52.002;5.468;2022-07-09T02:00:48;6.45;;;4.22;;
68074;SDS011;54864;52.002;5.468;2022-07-09T02:01:50;5.18;;;4.43;;
68074;SDS011;54864;52.002;5.468;2022-07-09T02:02:50;8.02;;;4.30;;
68074;SDS011;54864;52.002;5.468;2022-07-09T02:03:52;9.05;;;5.13;;
68074;SDS011;54864;52.002;5.468;2022-07-09T02:04:53;7.93;;;4.73;;
68074;SDS011;54864;52.002;5.468;2022-07-09T02:05:55;8.68;;;5.35;;
68074;SDS011;54864;52.002;5.468;2022-07-09T02:06:57;6.90;;;5.07;;
68074;SDS011;54864;52.002;5.468;2022-07-09T02:07:59;7.88;;;5.75;;
68074;SDS011;54864;52.002;5.468;2022-07-09T02:09:00;6.15;;;5.50;;
68074;SDS011;54864;52.002;5.468;2022-07-09T02:10:02;8.23;;;5.30;;
68074;SDS011;54864;52.002;5.468;2022-07-09T02:11:03;7.07;;;5.60;;
68074;SDS011;54864;52.002;5.468;2022-07-09T02:12:05;9.77;;;6.00;;
68074;SDS011;54864;52.002;5.468;2022-07-09T02:13:06;9.00;;;6.07;;
68074;SDS011;54864;52.002;5.468;2022-07-09T02:14:08;11.40;;;6.50;;
68074;SDS011;54864;52.002;5.468;2022-07-09T02:15:08;9.23;;;6.28;;
68074;SDS011;54864;52.002;5.468;2022-07-09T02:16:12;9.57;;;6.20;;
68074;SDS011;54864;52.002;5.468;2022-07-09T02:17:13;9.98;;;6.40;;
68074;SDS011;54864;52.002;5.468;2022-07-09T02:18:15;9.05;;;6.18;;
68074;SDS011;54864;52.002;5.468;2022-07-09T02:19:15;10.73;;;5.97;;
68074;SDS011;54864;52.002;5.468;2022-07-09T02:20:17;9.65;;;6.38;;
68074;SDS011;54864;52.002;5.468;2022-07-09T02:21:18;8.07;;;5.80;;
68074;SDS011;54864;52.002;5.468;2022-07-09T02:22:21;9.32;;;5.88;;
68074;SDS011;54864;52.002;5.468;2022-07-09T02:23:22;8.23;;;6.20;;
68074;SDS011;54864;52.002;5.468;2022-07-09T02:24:24;8.07;;;6.03;;
68074;SDS011;54864;52.002;5.468;2022-07-09T02:25:25;11.60;;;6.03;;
68074;SDS011;54864;52.002;5.468;2022-07-09T02:26:28;8.88;;;6.47;;
68074;SDS011;54864;52.002;5.468;2022-07-09T02:27:29;8.43;;;5.93;;
68074;SDS011;54864;52.002;5.468;2022-07-09T02:28:31;8.57;;;6.38;;
68074;SDS011;54864;52.002;5.468;2022-07-09T02:29:31;8.80;;;6.43;;
68074;SDS011;54864;52.002;5.468;2022-07-09T02:30:33;9.63;;;6.30;;
68074;SDS011;54864;52.002;5.468;2022-07-09T02:31:34;9.45;;;6.60;;
68074;SDS011;54864;52.002;5.468;2022-07-09T02:32:38;11.17;;;6.60;;
68074;SDS011;54864;52.002;5.468;2022-07-09T02:33:39;12.05;;;6.28;;
68074;SDS011;54864;52.002;5.468;2022-07-09T02:34:40;9.48;;;6.00;;
68074;SDS011;54864;52.002;5.468;2022-07-09T02:35:41;8.82;;;6.22;;
68074;SDS011;54864;52.002;5.468;2022-07-09T02:36:43;12.70;;;7.00;;
68074;SDS011;54864;52.002;5.468;2022-07-09T02:37:45;8.80;;;6.27;;
68074;SDS011;54864;52.002;5.468;2022-07-09T02:38:46;8.43;;;6.05;;
68074;SDS011;54864;52.002;5.468;2022-07-09T02:39:47;9.13;;;6.60;;
68074;SDS011;54864;52.002;5.468;2022-07-09T02:40:49;8.88;;;6.63;;
68074;SDS011;54864;52.002;5.468;2022-07-09T02:41:49;11.40;;;6.75;;
68074;SDS011;54864;52.002;5.468;2022-07-09T02:42:52;9.40;;;6.30;;
68074;SDS011;54864;52.002;5.468;2022-07-09T02:43:53;13.43;;;6.82;;
68074;SDS011;54864;52.002;5.468;2022-07-09T02:44:54;9.57;;;6.80;;
68074;SDS011;54864;52.002;5.468;2022-07-09T02:45:55;10.07;;;6.33;;
68074;SDS011;54864;52.002;5.468;2022-07-09T02:46:57;8.57;;;6.20;;
68074;SDS011;54864;52.002;5.468;2022-07-09T02:47:59;12.70;;;7.97;;
68074;SDS011;54864;52.002;5.468;2022-07-09T02:49:01;13.48;;;7.15;;
68074;SDS011;54864;52.002;5.468;2022-07-09T02:50:01;12.87;;;8.10;;
68074;SDS011;54864;52.002;5.468;2022-07-09T02:51:03;13.30;;;7.85;;
68074;SDS011;54864;52.002;5.468;2022-07-09T02:52:05;12.88;;;8.27;;
68074;SDS011;54864;52.002;5.468;2022-07-09T02:53:08;12.73;;;9.05;;
68074;SDS011;54864;52.002;5.468;2022-07-09T02:54:09;14.77;;;9.82;;
68074;SDS011;54864;52.002;5.468;2022-07-09T02:55:13;14.52;;;8.10;;
68074;SDS011;54864;52.002;5.468;2022-07-09T02:56:13;14.67;;;9.77;;
68074;SDS011;54864;52.002;5.468;2022-07-09T02:57:15;12.88;;;9.50;;
68074;SDS011;54864;52.002;5.468;2022-07-09T02:58:16;13.43;;;9.52;;
68074;SDS011;54864;52.002;5.468;2022-07-09T02:59:17;12.27;;;9.27;;
68074;SDS011;54864;52.002;5.468;2022-07-09T03:00:18;11.30;;;8.63;;
68074;SDS011;54864;52.002;5.468;2022-07-09T03:01:20;13.05;;;8.93;;
68074;SDS011;54864;52.002;5.468;2022-07-09T03:02:21;14.07;;;8.43;;
68074;SDS011;54864;52.002;5.468;2022-07-09T03:03:22;12.90;;;8.60;;
68074;SDS011;54864;52.002;5.468;2022-07-09T03:04:23;12.73;;;8.57;;
68074;SDS011;54864;52.002;5.468;2022-07-09T03:05:25;10.13;;;8.18;;
68074;SDS011;54864;52.002;5.468;2022-07-09T03:06:26;15.20;;;9.68;;
68074;SDS011;54864;52.002;5.468;2022-07-09T03:07:28;14.10;;;9.50;;
68074;SDS011;54864;52.002;5.468;2022-07-09T03:08:30;13.57;;;9.55;;
68074;SDS011;54864;52.002;5.468;2022-07-09T03:09:32;13.55;;;9.35;;
68074;SDS011;54864;52.002;5.468;2022-07-09T03:10:33;13.63;;;9.65;;
68074;SDS011;54864;52.002;5.468;2022-07-09T03:11:36;14.87;;;9.90;;
68074;SDS011;54864;52.002;5.468;2022-07-09T03:12:36;12.00;;;9.07;;
68074;SDS011;54864;52.002;5.468;2022-07-09T03:13:38;11.45;;;9.07;;
68074;SDS011;54864;52.002;5.468;2022-07-09T03:14:38;14.60;;;9.77;;
68074;SDS011;54864;52.002;5.468;2022-07-09T03:15:40;16.40;;;11.25;;
68074;SDS011;54864;52.002;5.468;2022-07-09T03:16:41;15.75;;;10.85;;
68074;SDS011;54864;52.002;5.468;2022-07-09T03:17:42;15.13;;;11.50;;
68074;SDS011;54864;52.002;5.468;2022-07-09T03:18:43;17.25;;;11.00;;
68074;SDS011;54864;52.002;5.468;2022-07-09T03:19:45;16.98;;;11.13;;
68074;SDS011;54864;52.002;5.468;2022-07-09T03:20:47;13.57;;;10.88;;
68074;SDS011;54864;52.002;5.468;2022-07-09T03:21:48;16.65;;;11.80;;
68074;SDS011;54864;52.002;5.468;2022-07-09T03:22:49;19.30;;;12.13;;
68074;SDS011;54864;52.002;5.468;2022-07-09T03:23:53;15.63;;;12.07;;
68074;SDS011;54864;52.002;5.468;2022-07-09T03:24:53;15.93;;;11.00;;
68074;SDS011;54864;52.002;5.468;2022-07-09T03:25:55;14.57;;;10.38;;
68074;SDS011;54864;52.002;5.468;2022-07-09T03:26:56;15.93;;;9.85;;
68074;SDS011;54864;52.002;5.468;2022-07-09T03:27:57;13.77;;;9.98;;
68074;SDS011;54864;52.002;5.468;2022-07-09T03:28:58;13.93;;;10.10;;
68074;SDS011;54864;52.002;5.468;2022-07-09T03:30:00;14.38;;;9.57;;
68074;SDS011;54864;52.002;5.468;2022-07-09T03:31:01;12.82;;;9.27;;
68074;SDS011;54864;52.002;5.468;2022-07-09T03:32:03;14.65;;;8.95;;
68074;SDS011;54864;52.002;5.468;2022-07-09T03:33:05;13.02;;;8.85;;
68074;SDS011;54864;52.002;5.468;2022-07-09T03:34:06;13.20;;;8.82;;
68074;SDS011;54864;52.002;5.468;2022-07-09T03:35:07;14.38;;;8.73;;
68074;SDS011;54864;52.002;5.468;2022-07-09T03:36:09;14.25;;;9.40;;
68074;SDS011;54864;52.002;5.468;2022-07-09T03:37:11;14.23;;;9.70;;
68074;SDS011;54864;52.002;5.468;2022-07-09T03:38:11;12.85;;;9.82;;
68074;SDS011;54864;52.002;5.468;2022-07-09T03:39:14;16.60;;;10.20;;
68074;SDS011;54864;52.002;5.468;2022-07-09T03:40:15;14.73;;;10.25;;
68074;SDS011;54864;52.002;5.468;2022-07-09T03:41:17;18.23;;;11.48;;
68074;SDS011;54864;52.002;5.468;2022-07-09T03:42:17;15.05;;;10.85;;
68074;SDS011;54864;52.002;5.468;2022-07-09T03:43:19;13.90;;;10.63;;
68074;SDS011;54864;52.002;5.468;2022-07-09T03:44:19;14.45;;;11.32;;
68074;SDS011;54864;52.002;5.468;2022-07-09T03:45:21;18.15;;;12.52;;
68074;SDS011;54864;52.002;5.468;2022-07-09T03:46:22;19.03;;;12.00;;
68074;SDS011;54864;52.002;5.468;2022-07-09T03:47:24;17.33;;;12.65;;
68074;SDS011;54864;52.002;5.468;2022-07-09T03:48:25;15.57;;;11.82;;
68074;SDS011;54864;52.002;5.468;2022-07-09T03:49:26;18.67;;;12.13;;
68074;SDS011;54864;52.002;5.468;2022-07-09T03:50:27;18.93;;;12.77;;
68074;SDS011;54864;52.002;5.468;2022-07-09T03:51:29;18.35;;;13.15;;
68074;SDS011;54864;52.002;5.468;2022-07-09T03:52:29;17.43;;;12.27;;
68074;SDS011;54864;52.002;5.468;2022-07-09T03:53:31;18.80;;;13.13;;
68074;SDS011;54864;52.002;5.468;2022-07-09T03:54:33;22.15;;;14.43;;
68074;SDS011;54864;52.002;5.468;2022-07-09T03:55:35;17.60;;;13.55;;
68074;SDS011;54864;52.002;5.468;2022-07-09T03:56:36;21.27;;;12.77;;
68074;SDS011;54864;52.002;5.468;2022-07-09T03:57:37;21.73;;;13.07;;
68074;SDS011;54864;52.002;5.468;2022-07-09T03:58:38;18.52;;;13.10;;
68074;SDS011;54864;52.002;5.468;2022-07-09T03:59:40;21.20;;;15.10;;
68074;SDS011;54864;52.002;5.468;2022-07-09T04:00:40;20.33;;;13.75;;
68074;SDS011;54864;52.002;5.468;2022-07-09T04:01:42;16.65;;;14.10;;
68074;SDS011;54864;52.002;5.468;2022-07-09T04:02:42;18.97;;;13.77;;
68074;SDS011;54864;52.002;5.468;2022-07-09T04:03:45;19.70;;;14.02;;
68074;SDS011;54864;52.002;5.468;2022-07-09T04:04:46;20.53;;;14.50;;
68074;SDS011;54864;52.002;5.468;2022-07-09T04:05:47;19.75;;;14.38;;
68074;SDS011;54864;52.002;5.468;2022-07-09T04:06:48;20.17;;;14.67;;
68074;SDS011;54864;52.002;5.468;2022-07-09T04:07:50;18.35;;;13.90;;
68074;SDS011;54864;52.002;5.468;2022-07-09T04:08:51;21.27;;;14.47;;
68074;SDS011;54864;52.002;5.468;2022-07-09T04:09:54;21.05;;;14.43;;
68074;SDS011;54864;52.002;5.468;2022-07-09T04:10:55;20.65;;;15.50;;
68074;SDS011;54864;52.002;5.468;2022-07-09T04:11:56;22.10;;;15.63;;
68074;SDS011;54864;52.002;5.468;2022-07-09T04:12:57;22.23;;;15.50;;
68074;SDS011;54864;52.002;5.468;2022-07-09T04:13:59;20.33;;;14.70;;
68074;SDS011;54864;52.002;5.468;2022-07-09T04:15:00;21.23;;;15.32;;
68074;SDS011;54864;52.002;5.468;2022-07-09T04:16:02;20.73;;;14.13;;
68074;SDS011;54864;52.002;5.468;2022-07-09T04:17:04;18.85;;;14.55;;
68074;SDS011;54864;52.002;5.468;2022-07-09T04:18:06;20.25;;;14.43;;
68074;SDS011;54864;52.002;5.468;2022-07-09T04:19:07;18.63;;;14.53;;
68074;SDS011;54864;52.002;5.468;2022-07-09T04:20:09;20.05;;;14.52;;
68074;SDS011;54864;52.002;5.468;2022-07-09T04:21:11;21.02;;;15.48;;
68074;SDS011;54864;52.002;5.468;2022-07-09T04:22:12;20.77;;;14.73;;
68074;SDS011;54864;52.002;5.468;2022-07-09T04:23:13;20.80;;;14.70;;
68074;SDS011;54864;52.002;5.468;2022-07-09T04:24:14;21.27;;;14.60;;
68074;SDS011;54864;52.002;5.468;2022-07-09T04:25:17;19.55;;;14.50;;
68074;SDS011;54864;52.002;5.468;2022-07-09T04:26:19;20.83;;;15.17;;
68074;SDS011;54864;52.002;5.468;2022-07-09T04:27:20;26.88;;;15.45;;
68074;SDS011;54864;52.002;5.468;2022-07-09T04:28:21;22.40;;;14.75;;
68074;SDS011;54864;52.002;5.468;2022-07-09T04:29:22;21.63;;;15.70;;
68074;SDS011;54864;52.002;5.468;2022-07-09T04:30:24;22.25;;;16.30;;
68074;SDS011;54864;52.002;5.468;2022-07-09T04:31:25;22.10;;;15.77;;
68074;SDS011;54864;52.002;5.468;2022-07-09T04:32:26;20.58;;;16.15;;
68074;SDS011;54864;52.002;5.468;2022-07-09T04:33:27;22.95;;;16.50;;
68074;SDS011;54864;52.002;5.468;2022-07-09T04:34:28;23.23;;;17.07;;
68074;SDS011;54864;52.002;5.468;2022-07-09T04:35:29;21.90;;;15.80;;
68074;SDS011;54864;52.002;5.468;2022-07-09T04:36:31;20.15;;;15.50;;
68074;SDS011;54864;52.002;5.468;2022-07-09T04:37:31;22.67;;;15.43;;
68074;SDS011;54864;52.002;5.468;2022-07-09T04:38:33;20.00;;;15.18;;
68074;SDS011;54864;52.002;5.468;2022-07-09T04:39:34;20.58;;;14.93;;
68074;SDS011;54864;52.002;5.468;2022-07-09T04:40:37;19.80;;;14.13;;
68074;SDS011;54864;52.002;5.468;2022-07-09T04:41:38;23.60;;;14.75;;
68074;SDS011;54864;52.002;5.468;2022-07-09T04:42:41;20.33;;;14.65;;
68074;SDS011;54864;52.002;5.468;2022-07-09T04:43:41;21.35;;;14.35;;
68074;SDS011;54864;52.002;5.468;2022-07-09T04:44:43;20.05;;;14.85;;
68074;SDS011;54864;52.002;5.468;2022-07-09T04:45:43;20.67;;;14.07;;
68074;SDS011;54864;52.002;5.468;2022-07-09T04:46:45;19.52;;;14.18;;
68074;SDS011;54864;52.002;5.468;2022-07-09T04:47:46;18.38;;;13.32;;
68074;SDS011;54864;52.002;5.468;2022-07-09T04:48:47;20.93;;;13.77;;
68074;SDS011;54864;52.002;5.468;2022-07-09T04:49:48;22.30;;;13.90;;
68074;SDS011;54864;52.002;5.468;2022-07-09T04:50:50;22.48;;;13.18;;
68074;SDS011;54864;52.002;5.468;2022-07-09T04:51:50;19.33;;;13.33;;
68074;SDS011;54864;52.002;5.468;2022-07-09T04:52:52;20.85;;;14.75;;
68074;SDS011;54864;52.002;5.468;2022-07-09T04:53:53;19.95;;;14.15;;
68074;SDS011;54864;52.002;5.468;2022-07-09T04:54:54;20.02;;;14.32;;
68074;SDS011;54864;52.002;5.468;2022-07-09T04:55:56;20.73;;;14.77;;
68074;SDS011;54864;52.002;5.468;2022-07-09T04:56:58;19.25;;;13.73;;
68074;SDS011;54864;52.002;5.468;2022-07-09T04:57:59;19.13;;;13.33;;
68074;SDS011;54864;52.002;5.468;2022-07-09T04:59:00;22.70;;;16.85;;
68074;SDS011;54864;52.002;5.468;2022-07-09T05:00:03;24.83;;;16.98;;
68074;SDS011;54864;52.002;5.468;2022-07-09T05:01:05;23.10;;;17.50;;
68074;SDS011;54864;52.002;5.468;2022-07-09T05:02:06;22.88;;;17.20;;
68074;SDS011;54864;52.002;5.468;2022-07-09T05:03:08;22.63;;;17.08;;
68074;SDS011;54864;52.002;5.468;2022-07-09T05:04:09;20.40;;;16.13;;
68074;SDS011;54864;52.002;5.468;2022-07-09T05:05:11;23.48;;;16.85;;
68074;SDS011;54864;52.002;5.468;2022-07-09T05:06:13;24.63;;;16.92;;
68074;SDS011;54864;52.002;5.468;2022-07-09T05:07:15;21.80;;;15.52;;
68074;SDS011;54864;52.002;5.468;2022-07-09T05:08:16;20.23;;;15.68;;
68074;SDS011;54864;52.002;5.468;2022-07-09T05:09:17;23.20;;;16.30;;
68074;SDS011;54864;52.002;5.468;2022-07-09T05:10:18;23.80;;;16.48;;
68074;SDS011;54864;52.002;5.468;2022-07-09T05:11:21;22.17;;;15.52;;
68074;SDS011;54864;52.002;5.468;2022-07-09T05:12:22;19.80;;;15.00;;
68074;SDS011;54864;52.002;5.468;2022-07-09T05:13:23;20.38;;;15.32;;
68074;SDS011;54864;52.002;5.468;2022-07-09T05:14:24;23.80;;;15.70;;
68074;SDS011;54864;52.002;5.468;2022-07-09T05:15:26;20.30;;;15.13;;
68074;SDS011;54864;52.002;5.468;2022-07-09T05:16:27;21.42;;;16.13;;
68074;SDS011;54864;52.002;5.468;2022-07-09T05:17:32;25.40;;;17.83;;
68074;SDS011;54864;52.002;5.468;2022-07-09T05:18:34;21.92;;;17.05;;
68074;SDS011;54864;52.002;5.468;2022-07-09T05:19:37;21.70;;;18.08;;
68074;SDS011;54864;52.002;5.468;2022-07-09T05:20:38;32.85;;;21.35;;
68074;SDS011;54864;52.002;5.468;2022-07-09T05:21:42;26.95;;;20.42;;
68074;SDS011;54864;52.002;5.468;2022-07-09T05:22:43;27.38;;;19.55;;
68074;SDS011;54864;52.002;5.468;2022-07-09T05:23:44;26.83;;;20.20;;
68074;SDS011;54864;52.002;5.468;2022-07-09T05:24:45;31.75;;;20.77;;
68074;SDS011;54864;52.002;5.468;2022-07-09T05:25:46;27.85;;;20.27;;
68074;SDS011;54864;52.002;5.468;2022-07-09T05:26:48;28.30;;;20.27;;
68074;SDS011;54864;52.002;5.468;2022-07-09T05:27:50;24.92;;;19.35;;
68074;SDS011;54864;52.002;5.468;2022-07-09T05:28:51;30.25;;;20.63;;
68074;SDS011;54864;52.002;5.468;2022-07-09T05:29:53;28.83;;;21.75;;
68074;SDS011;54864;52.002;5.468;2022-07-09T05:30:54;30.00;;;21.00;;
68074;SDS011;54864;52.002;5.468;2022-07-09T05:31:55;30.15;;;21.60;;
68074;SDS011;54864;52.002;5.468;2022-07-09T05:32:57;30.40;;;21.15;;
68074;SDS011;54864;52.002;5.468;2022-07-09T05:33:59;34.20;;;23.00;;
68074;SDS011;54864;52.002;5.468;2022-07-09T05:35:00;32.53;;;23.05;;
68074;SDS011;54864;52.002;5.468;2022-07-09T05:36:02;38.00;;;23.45;;
68074;SDS011;54864;52.002;5.468;2022-07-09T05:37:03;33.65;;;22.63;;
68074;SDS011;54864;52.002;5.468;2022-07-09T05:38:05;37.95;;;25.55;;
68074;SDS011;54864;52.002;5.468;2022-07-09T05:39:05;33.03;;;24.40;;
68074;SDS011;54864;52.002;5.468;2022-07-09T05:40:08;34.13;;;23.42;;
68074;SDS011;54864;52.002;5.468;2022-07-09T05:41:09;35.85;;;24.60;;
68074;SDS011;54864;52.002;5.468;2022-07-09T05:42:12;36.80;;;25.20;;
68074;SDS011;54864;52.002;5.468;2022-07-09T05:43:13;41.03;;;25.63;;
68074;SDS011;54864;52.002;5.468;2022-07-09T05:44:15;36.85;;;24.48;;
68074;SDS011;54864;52.002;5.468;2022-07-09T05:45:15;35.88;;;26.80;;
68074;SDS011;54864;52.002;5.468;2022-07-09T05:46:17;36.33;;;24.95;;
68074;SDS011;54864;52.002;5.468;2022-07-09T05:47:18;38.50;;;26.65;;
68074;SDS011;54864;52.002;5.468;2022-07-09T05:48:20;43.08;;;27.77;;
68074;SDS011;54864;52.002;5.468;2022-07-09T05:49:21;40.07;;;27.63;;
68074;SDS011;54864;52.002;5.468;2022-07-09T05:50:22;39.55;;;27.10;;
68074;SDS011;54864;52.002;5.468;2022-07-09T05:51:23;38.73;;;27.07;;
68074;SDS011;54864;52.002;5.468;2022-07-09T05:52:25;40.15;;;27.17;;
68074;SDS011;54864;52.002;5.468;2022-07-09T05:53:25;38.60;;;26.87;;
68074;SDS011;54864;52.002;5.468;2022-07-09T05:54:27;42.08;;;27.58;;
68074;SDS011;54864;52.002;5.468;2022-07-09T05:55:27;42.43;;;27.30;;
68074;SDS011;54864;52.002;5.468;2022-07-09T05:56:29;36.33;;;27.40;;
68074;SDS011;54864;52.002;5.468;2022-07-09T05:57:31;41.72;;;28.25;;
68074;SDS011;54864;52.002;5.468;2022-07-09T05:58:33;40.25;;;28.65;;
68074;SDS011;54864;52.002;5.468;2022-07-09T05:59:34;44.40;;;30.03;;
68074;SDS011;54864;52.002;5.468;2022-07-09T06:00:35;43.47;;;29.58;;
68074;SDS011;54864;52.002;5.468;2022-07-09T06:01:36;45.03;;;30.73;;
68074;SDS011;54864;52.002;5.468;2022-07-09T06:02:39;46.33;;;29.95;;
68074;SDS011;54864;52.002;5.468;2022-07-09T06:03:40;43.60;;;29.33;;
68074;SDS011;54864;52.002;5.468;2022-07-09T06:04:43;41.38;;;30.67;;